• pl
  • eng

Awiacja
Komunikaty METAR z lotnisk wojskowych. 08:01 18.02.2018

METAR EPCE 180630Z VRB01KT 6000 BKN052 M04/M05
Q1026 RMK M040 096 6/6 =

METAR EPDA 180630Z VRB02KT 4000 0800E BCFG BR OVC039 00/00
Q1027 RMK 002 099 8/8 =

METAR EPDE 180630Z 35008KT CAVOK M01/M03 Q1024 RMK M010 086 7/7=

METAR EPIR 180630Z 29006KT 3000 BR NSC M03/M03 Q1027 RMK M027 095 0/0
=

METAR EPKS 180630Z 00000KT 9999 BKN010 M02/M03 Q1028 RMK M024 092
7/7=

METAR EPLK 180630Z NIL=

METAR EPLY 180630Z 33004KT 6000 BKN008 BKN013 M00/M02 Q1027 RMK M004
091 7/5=

METAR EPMB 180630Z 30004KT 9000 SCT030 BKN050 M01/M03 Q1026 RMK M014
088 6/3=

METAR EPMI 180630Z NIL=

METAR EPMM 180630Z 31004KT 9000 SCT060 M03/M04 Q1024 RMK M030 094
4/4=

METAR EPNA 180630Z NIL=

METAR EPOK 180630Z 29005KT 9999 BKN047 M01/M02
Q1026 RMK M011 091 7/7 =

METAR EPPR 180630Z NIL=

METAR EPPW 180630Z 30002KT 8000 SCT008 BKN012 BKN015 M01/M02 Q1027
RMK M006 093 7/3=

METAR EPSN 180630Z 26004KT 8000 BKN020 M02/M02 Q1027 RMK M018 098 7/7
=

METAR EPTM 180630Z NIL=
Awiacja.imgw.pl jest pogodowym serwisem informacyjnym
Instytutu Meteorologii i Gospodarki Wodnej Państwowego Instytutu Badawczego.
Copyright IMGW PIB 2009-2011© Wszelkie prawa zastrzeżone.